sensor_id;sensor_type;location;lat;lon;timestamp;P1;durP1;ratioP1;P2;durP2;ratioP2
46006;SDS011;31738;50.188;8.524;2023-04-03T00:00:26;4.03;;;1.45;;
46006;SDS011;31738;50.188;8.524;2023-04-03T00:02:56;6.45;;;1.23;;
46006;SDS011;31738;50.188;8.524;2023-04-03T00:05:22;5.65;;;1.40;;
46006;SDS011;31738;50.188;8.524;2023-04-03T00:07:48;3.25;;;1.52;;
46006;SDS011;31738;50.188;8.524;2023-04-03T00:10:15;2.88;;;0.93;;
46006;SDS011;31738;50.188;8.524;2023-04-03T00:12:41;4.32;;;1.15;;
46006;SDS011;31738;50.188;8.524;2023-04-03T00:15:06;3.00;;;1.10;;
46006;SDS011;31738;50.188;8.524;2023-04-03T00:17:32;4.53;;;1.38;;
46006;SDS011;31738;50.188;8.524;2023-04-03T00:19:58;3.45;;;1.30;;
46006;SDS011;31738;50.188;8.524;2023-04-03T00:22:24;3.80;;;1.00;;
46006;SDS011;31738;50.188;8.524;2023-04-03T00:24:54;4.15;;;1.20;;
46006;SDS011;31738;50.188;8.524;2023-04-03T00:27:19;5.88;;;1.25;;
46006;SDS011;31738;50.188;8.524;2023-04-03T00:29:45;5.70;;;1.40;;
46006;SDS011;31738;50.188;8.524;2023-04-03T00:32:11;7.80;;;1.20;;
46006;SDS011;31738;50.188;8.524;2023-04-03T00:34:42;4.40;;;1.13;;
46006;SDS011;31738;50.188;8.524;2023-04-03T00:37:11;5.72;;;1.02;;
46006;SDS011;31738;50.188;8.524;2023-04-03T00:39:39;3.72;;;1.08;;
46006;SDS011;31738;50.188;8.524;2023-04-03T00:42:05;4.38;;;1.33;;
46006;SDS011;31738;50.188;8.524;2023-04-03T00:46:59;5.03;;;0.98;;
46006;SDS011;31738;50.188;8.524;2023-04-03T00:49:26;5.07;;;0.90;;
46006;SDS011;31738;50.188;8.524;2023-04-03T00:51:52;3.08;;;1.08;;
46006;SDS011;31738;50.188;8.524;2023-04-03T00:54:19;3.85;;;1.10;;
46006;SDS011;31738;50.188;8.524;2023-04-03T00:56:44;6.38;;;1.35;;
46006;SDS011;31738;50.188;8.524;2023-04-03T00:59:15;3.45;;;1.15;;
46006;SDS011;31738;50.188;8.524;2023-04-03T01:01:46;4.25;;;1.25;;
46006;SDS011;31738;50.188;8.524;2023-04-03T01:04:26;3.03;;;1.10;;
46006;SDS011;31738;50.188;8.524;2023-04-03T01:06:53;4.50;;;1.30;;
46006;SDS011;31738;50.188;8.524;2023-04-03T01:09:25;4.63;;;1.13;;
46006;SDS011;31738;50.188;8.524;2023-04-03T01:11:51;4.05;;;1.20;;
46006;SDS011;31738;50.188;8.524;2023-04-03T01:14:17;4.80;;;1.38;;
46006;SDS011;31738;50.188;8.524;2023-04-03T01:16:51;5.07;;;1.30;;
46006;SDS011;31738;50.188;8.524;2023-04-03T01:19:18;4.43;;;1.25;;
46006;SDS011;31738;50.188;8.524;2023-04-03T01:22:03;2.70;;;1.10;;
46006;SDS011;31738;50.188;8.524;2023-04-03T01:24:38;4.80;;;1.13;;
46006;SDS011;31738;50.188;8.524;2023-04-03T01:27:09;4.03;;;1.00;;
46006;SDS011;31738;50.188;8.524;2023-04-03T01:32:34;4.65;;;1.10;;
46006;SDS011;31738;50.188;8.524;2023-04-03T01:35:02;5.85;;;1.50;;
46006;SDS011;31738;50.188;8.524;2023-04-03T01:37:32;5.43;;;1.40;;
46006;SDS011;31738;50.188;8.524;2023-04-03T01:39:57;9.25;;;1.95;;
46006;SDS011;31738;50.188;8.524;2023-04-03T01:42:23;4.40;;;1.40;;
46006;SDS011;31738;50.188;8.524;2023-04-03T01:44:49;2.85;;;1.42;;
46006;SDS011;31738;50.188;8.524;2023-04-03T01:47:15;6.53;;;1.60;;
46006;SDS011;31738;50.188;8.524;2023-04-03T01:49:40;4.72;;;1.30;;
46006;SDS011;31738;50.188;8.524;2023-04-03T01:52:06;5.65;;;1.50;;
46006;SDS011;31738;50.188;8.524;2023-04-03T01:54:31;4.40;;;1.30;;
46006;SDS011;31738;50.188;8.524;2023-04-03T01:56:57;4.70;;;1.38;;
46006;SDS011;31738;50.188;8.524;2023-04-03T01:59:23;4.55;;;1.27;;
46006;SDS011;31738;50.188;8.524;2023-04-03T02:01:49;6.28;;;1.30;;
46006;SDS011;31738;50.188;8.524;2023-04-03T02:04:15;6.75;;;1.58;;
46006;SDS011;31738;50.188;8.524;2023-04-03T02:06:40;2.20;;;1.50;;
46006;SDS011;31738;50.188;8.524;2023-04-03T02:09:09;4.28;;;1.70;;
46006;SDS011;31738;50.188;8.524;2023-04-03T02:11:35;7.90;;;1.63;;
46006;SDS011;31738;50.188;8.524;2023-04-03T02:14:13;3.60;;;1.58;;
46006;SDS011;31738;50.188;8.524;2023-04-03T02:16:47;5.82;;;1.52;;
46006;SDS011;31738;50.188;8.524;2023-04-03T02:19:16;6.45;;;1.65;;
46006;SDS011;31738;50.188;8.524;2023-04-03T02:21:41;5.95;;;1.60;;
46006;SDS011;31738;50.188;8.524;2023-04-03T02:24:07;5.22;;;1.40;;
46006;SDS011;31738;50.188;8.524;2023-04-03T02:26:34;6.68;;;1.73;;
46006;SDS011;31738;50.188;8.524;2023-04-03T02:29:00;4.85;;;1.85;;
46006;SDS011;31738;50.188;8.524;2023-04-03T02:31:28;6.20;;;1.77;;
46006;SDS011;31738;50.188;8.524;2023-04-03T02:33:56;3.65;;;1.63;;
46006;SDS011;31738;50.188;8.524;2023-04-03T02:36:30;4.68;;;1.40;;
46006;SDS011;31738;50.188;8.524;2023-04-03T02:39:11;8.48;;;2.85;;
46006;SDS011;31738;50.188;8.524;2023-04-03T02:41:47;7.32;;;1.65;;
46006;SDS011;31738;50.188;8.524;2023-04-03T02:44:18;4.93;;;1.80;;
46006;SDS011;31738;50.188;8.524;2023-04-03T02:46:44;6.00;;;1.70;;
46006;SDS011;31738;50.188;8.524;2023-04-03T02:49:10;7.72;;;1.42;;
46006;SDS011;31738;50.188;8.524;2023-04-03T02:51:36;4.13;;;1.70;;
46006;SDS011;31738;50.188;8.524;2023-04-03T02:54:01;8.27;;;1.55;;
46006;SDS011;31738;50.188;8.524;2023-04-03T02:56:30;5.30;;;1.70;;
46006;SDS011;31738;50.188;8.524;2023-04-03T02:58:55;8.57;;;2.25;;
46006;SDS011;31738;50.188;8.524;2023-04-03T03:01:21;5.03;;;1.67;;
46006;SDS011;31738;50.188;8.524;2023-04-03T03:03:47;5.82;;;1.70;;
46006;SDS011;31738;50.188;8.524;2023-04-03T03:06:13;5.90;;;1.40;;
46006;SDS011;31738;50.188;8.524;2023-04-03T03:08:42;5.68;;;1.67;;
46006;SDS011;31738;50.188;8.524;2023-04-03T03:11:08;7.68;;;1.90;;
46006;SDS011;31738;50.188;8.524;2023-04-03T03:13:38;3.38;;;1.35;;
46006;SDS011;31738;50.188;8.524;2023-04-03T03:16:03;5.72;;;1.45;;
46006;SDS011;31738;50.188;8.524;2023-04-03T03:18:29;7.00;;;1.20;;
46006;SDS011;31738;50.188;8.524;2023-04-03T03:20:56;7.22;;;1.70;;
46006;SDS011;31738;50.188;8.524;2023-04-03T03:23:23;6.57;;;1.52;;
46006;SDS011;31738;50.188;8.524;2023-04-03T03:25:54;5.72;;;1.60;;
46006;SDS011;31738;50.188;8.524;2023-04-03T03:28:21;8.98;;;1.70;;
46006;SDS011;31738;50.188;8.524;2023-04-03T03:30:46;6.75;;;1.40;;
46006;SDS011;31738;50.188;8.524;2023-04-03T03:33:13;8.70;;;1.50;;
46006;SDS011;31738;50.188;8.524;2023-04-03T03:35:38;5.45;;;1.33;;
46006;SDS011;31738;50.188;8.524;2023-04-03T03:38:04;4.72;;;1.10;;
46006;SDS011;31738;50.188;8.524;2023-04-03T03:40:31;5.78;;;1.30;;
46006;SDS011;31738;50.188;8.524;2023-04-03T03:42:56;5.82;;;1.60;;
46006;SDS011;31738;50.188;8.524;2023-04-03T03:45:22;4.75;;;1.13;;
46006;SDS011;31738;50.188;8.524;2023-04-03T03:47:47;9.77;;;1.60;;
46006;SDS011;31738;50.188;8.524;2023-04-03T03:50:13;8.35;;;1.40;;
46006;SDS011;31738;50.188;8.524;2023-04-03T03:52:39;6.57;;;1.80;;
46006;SDS011;31738;50.188;8.524;2023-04-03T03:55:04;6.00;;;1.60;;
46006;SDS011;31738;50.188;8.524;2023-04-03T03:57:36;4.43;;;1.30;;
46006;SDS011;31738;50.188;8.524;2023-04-03T04:00:02;6.85;;;1.65;;
46006;SDS011;31738;50.188;8.524;2023-04-03T04:02:29;3.60;;;1.20;;
46006;SDS011;31738;50.188;8.524;2023-04-03T04:04:56;5.32;;;1.27;;
46006;SDS011;31738;50.188;8.524;2023-04-03T04:07:21;6.25;;;1.73;;
46006;SDS011;31738;50.188;8.524;2023-04-03T04:09:47;6.65;;;1.70;;
46006;SDS011;31738;50.188;8.524;2023-04-03T04:12:13;5.38;;;1.20;;
46006;SDS011;31738;50.188;8.524;2023-04-03T04:14:38;8.80;;;1.92;;
46006;SDS011;31738;50.188;8.524;2023-04-03T04:17:06;6.60;;;1.38;;
46006;SDS011;31738;50.188;8.524;2023-04-03T04:19:36;4.60;;;1.63;;
46006;SDS011;31738;50.188;8.524;2023-04-03T04:22:01;7.75;;;1.67;;
46006;SDS011;31738;50.188;8.524;2023-04-03T04:24:32;5.70;;;1.83;;
46006;SDS011;31738;50.188;8.524;2023-04-03T04:27:00;5.13;;;1.55;;
46006;SDS011;31738;50.188;8.524;2023-04-03T04:29:28;6.18;;;1.90;;
46006;SDS011;31738;50.188;8.524;2023-04-03T04:31:53;12.55;;;1.77;;
46006;SDS011;31738;50.188;8.524;2023-04-03T04:34:21;8.27;;;1.70;;
46006;SDS011;31738;50.188;8.524;2023-04-03T04:36:46;10.30;;;2.63;;
46006;SDS011;31738;50.188;8.524;2023-04-03T04:39:12;3.92;;;1.50;;
46006;SDS011;31738;50.188;8.524;2023-04-03T04:41:38;4.95;;;1.88;;
46006;SDS011;31738;50.188;8.524;2023-04-03T04:44:05;6.25;;;2.17;;
46006;SDS011;31738;50.188;8.524;2023-04-03T04:46:33;8.82;;;1.98;;
46006;SDS011;31738;50.188;8.524;2023-04-03T04:48:59;5.25;;;1.75;;
46006;SDS011;31738;50.188;8.524;2023-04-03T04:51:27;4.57;;;1.58;;
46006;SDS011;31738;50.188;8.524;2023-04-03T04:53:53;8.13;;;2.00;;
46006;SDS011;31738;50.188;8.524;2023-04-03T04:56:19;5.13;;;1.88;;
46006;SDS011;31738;50.188;8.524;2023-04-03T04:58:47;5.65;;;1.70;;
46006;SDS011;31738;50.188;8.524;2023-04-03T05:01:15;7.47;;;2.05;;
46006;SDS011;31738;50.188;8.524;2023-04-03T05:03:51;5.88;;;1.60;;
46006;SDS011;31738;50.188;8.524;2023-04-03T05:06:17;6.07;;;1.80;;
46006;SDS011;31738;50.188;8.524;2023-04-03T05:08:44;6.82;;;1.60;;
46006;SDS011;31738;50.188;8.524;2023-04-03T05:11:16;3.72;;;1.38;;
46006;SDS011;31738;50.188;8.524;2023-04-03T05:13:43;5.43;;;1.63;;
46006;SDS011;31738;50.188;8.524;2023-04-03T05:16:08;9.32;;;1.63;;
46006;SDS011;31738;50.188;8.524;2023-04-03T05:18:35;6.55;;;2.05;;
46006;SDS011;31738;50.188;8.524;2023-04-03T05:21:06;8.48;;;1.95;;
46006;SDS011;31738;50.188;8.524;2023-04-03T05:23:31;6.13;;;1.55;;
46006;SDS011;31738;50.188;8.524;2023-04-03T05:25:59;5.80;;;2.03;;
46006;SDS011;31738;50.188;8.524;2023-04-03T05:28:29;6.00;;;1.77;;
46006;SDS011;31738;50.188;8.524;2023-04-03T05:30:55;6.85;;;1.70;;
46006;SDS011;31738;50.188;8.524;2023-04-03T05:33:31;7.68;;;1.70;;
46006;SDS011;31738;50.188;8.524;2023-04-03T05:36:21;7.50;;;2.00;;
46006;SDS011;31738;50.188;8.524;2023-04-03T05:38:52;10.27;;;2.08;;
46006;SDS011;31738;50.188;8.524;2023-04-03T05:41:18;8.50;;;2.13;;
46006;SDS011;31738;50.188;8.524;2023-04-03T05:43:45;8.10;;;2.10;;
46006;SDS011;31738;50.188;8.524;2023-04-03T05:46:11;7.20;;;1.67;;
46006;SDS011;31738;50.188;8.524;2023-04-03T05:48:39;10.18;;;2.00;;
46006;SDS011;31738;50.188;8.524;2023-04-03T05:51:06;9.88;;;1.98;;
46006;SDS011;31738;50.188;8.524;2023-04-03T05:53:33;8.18;;;1.60;;
46006;SDS011;31738;50.188;8.524;2023-04-03T05:56:03;7.07;;;2.17;;
46006;SDS011;31738;50.188;8.524;2023-04-03T05:58:32;6.25;;;1.80;;
46006;SDS011;31738;50.188;8.524;2023-04-03T06:00:58;8.35;;;1.95;;
46006;SDS011;31738;50.188;8.524;2023-04-03T06:03:24;4.20;;;1.70;;
46006;SDS011;31738;50.188;8.524;2023-04-03T06:05:50;8.35;;;2.20;;
46006;SDS011;31738;50.188;8.524;2023-04-03T06:08:15;7.65;;;1.92;;
46006;SDS011;31738;50.188;8.524;2023-04-03T06:10:41;7.63;;;1.80;;
46006;SDS011;31738;50.188;8.524;2023-04-03T06:13:06;7.57;;;1.88;;
46006;SDS011;31738;50.188;8.524;2023-04-03T06:15:32;6.00;;;1.77;;
46006;SDS011;31738;50.188;8.524;2023-04-03T06:17:58;6.85;;;1.80;;
46006;SDS011;31738;50.188;8.524;2023-04-03T06:20:24;7.78;;;1.88;;
46006;SDS011;31738;50.188;8.524;2023-04-03T06:22:50;8.85;;;2.10;;
46006;SDS011;31738;50.188;8.524;2023-04-03T06:25:15;6.15;;;1.88;;
46006;SDS011;31738;50.188;8.524;2023-04-03T06:27:44;2.90;;;1.48;;
46006;SDS011;31738;50.188;8.524;2023-04-03T06:30:09;6.93;;;1.83;;
46006;SDS011;31738;50.188;8.524;2023-04-03T06:32:36;5.32;;;1.70;;
46006;SDS011;31738;50.188;8.524;2023-04-03T06:35:01;7.10;;;1.70;;
46006;SDS011;31738;50.188;8.524;2023-04-03T06:37:27;4.40;;;1.45;;
46006;SDS011;31738;50.188;8.524;2023-04-03T06:39:54;7.32;;;1.80;;
46006;SDS011;31738;50.188;8.524;2023-04-03T06:42:20;5.10;;;1.67;;
46006;SDS011;31738;50.188;8.524;2023-04-03T06:44:53;6.07;;;1.75;;
46006;SDS011;31738;50.188;8.524;2023-04-03T06:47:18;7.82;;;1.92;;
46006;SDS011;31738;50.188;8.524;2023-04-03T06:49:44;7.75;;;2.15;;
46006;SDS011;31738;50.188;8.524;2023-04-03T06:52:10;6.45;;;2.00;;
46006;SDS011;31738;50.188;8.524;2023-04-03T06:54:37;9.05;;;2.60;;
46006;SDS011;31738;50.188;8.524;2023-04-03T06:57:03;4.93;;;1.75;;
46006;SDS011;31738;50.188;8.524;2023-04-03T06:59:29;5.82;;;1.80;;
46006;SDS011;31738;50.188;8.524;2023-04-03T07:01:55;7.97;;;2.00;;
46006;SDS011;31738;50.188;8.524;2023-04-03T07:04:21;10.27;;;2.25;;
46006;SDS011;31738;50.188;8.524;2023-04-03T07:06:47;5.82;;;1.88;;
46006;SDS011;31738;50.188;8.524;2023-04-03T07:09:13;6.53;;;2.05;;
46006;SDS011;31738;50.188;8.524;2023-04-03T07:11:39;9.43;;;2.42;;
46006;SDS011;31738;50.188;8.524;2023-04-03T07:14:05;7.50;;;2.13;;
46006;SDS011;31738;50.188;8.524;2023-04-03T07:16:33;4.63;;;2.10;;
46006;SDS011;31738;50.188;8.524;2023-04-03T07:18:59;7.03;;;2.63;;
46006;SDS011;31738;50.188;8.524;2023-04-03T07:21:25;6.75;;;2.25;;
46006;SDS011;31738;50.188;8.524;2023-04-03T07:23:51;4.47;;;1.80;;
46006;SDS011;31738;50.188;8.524;2023-04-03T07:26:16;6.53;;;2.00;;
46006;SDS011;31738;50.188;8.524;2023-04-03T07:28:42;7.20;;;2.20;;
46006;SDS011;31738;50.188;8.524;2023-04-03T07:31:12;6.40;;;2.40;;
46006;SDS011;31738;50.188;8.524;2023-04-03T07:33:42;7.10;;;2.35;;
46006;SDS011;31738;50.188;8.524;2023-04-03T07:36:09;8.13;;;2.80;;
46006;SDS011;31738;50.188;8.524;2023-04-03T07:38:36;8.20;;;2.70;;
46006;SDS011;31738;50.188;8.524;2023-04-03T07:41:02;7.85;;;2.17;;
46006;SDS011;31738;50.188;8.524;2023-04-03T07:43:29;6.72;;;2.33;;
46006;SDS011;31738;50.188;8.524;2023-04-03T07:45:54;10.30;;;2.70;;
46006;SDS011;31738;50.188;8.524;2023-04-03T07:48:24;8.05;;;2.15;;
46006;SDS011;31738;50.188;8.524;2023-04-03T07:50:50;12.35;;;2.72;;
46006;SDS011;31738;50.188;8.524;2023-04-03T07:53:17;9.90;;;2.58;;
46006;SDS011;31738;50.188;8.524;2023-04-03T07:55:48;7.20;;;2.20;;
46006;SDS011;31738;50.188;8.524;2023-04-03T07:58:14;7.22;;;2.70;;
46006;SDS011;31738;50.188;8.524;2023-04-03T08:00:41;9.45;;;2.85;;
46006;SDS011;31738;50.188;8.524;2023-04-03T08:03:08;6.78;;;2.17;;
46006;SDS011;31738;50.188;8.524;2023-04-03T08:05:37;7.63;;;2.40;;
46006;SDS011;31738;50.188;8.524;2023-04-03T08:08:04;6.85;;;2.20;;
46006;SDS011;31738;50.188;8.524;2023-04-03T08:10:31;4.72;;;2.30;;
46006;SDS011;31738;50.188;8.524;2023-04-03T08:12:56;5.72;;;2.35;;
46006;SDS011;31738;50.188;8.524;2023-04-03T08:15:22;11.18;;;2.60;;
46006;SDS011;31738;50.188;8.524;2023-04-03T08:17:48;6.25;;;2.10;;
46006;SDS011;31738;50.188;8.524;2023-04-03T08:20:13;7.53;;;2.38;;
46006;SDS011;31738;50.188;8.524;2023-04-03T08:22:39;6.40;;;2.33;;
46006;SDS011;31738;50.188;8.524;2023-04-03T08:25:05;6.40;;;1.88;;
46006;SDS011;31738;50.188;8.524;2023-04-03T08:27:31;9.10;;;2.35;;
46006;SDS011;31738;50.188;8.524;2023-04-03T08:29:56;6.80;;;2.35;;
46006;SDS011;31738;50.188;8.524;2023-04-03T08:32:22;5.03;;;2.33;;
46006;SDS011;31738;50.188;8.524;2023-04-03T08:34:48;9.27;;;2.53;;
46006;SDS011;31738;50.188;8.524;2023-04-03T08:37:13;11.98;;;2.40;;
46006;SDS011;31738;50.188;8.524;2023-04-03T08:39:39;8.93;;;3.05;;
46006;SDS011;31738;50.188;8.524;2023-04-03T08:42:15;7.05;;;1.75;;
46006;SDS011;31738;50.188;8.524;2023-04-03T08:45:01;6.30;;;2.08;;
46006;SDS011;31738;50.188;8.524;2023-04-03T08:47:38;6.68;;;2.33;;
46006;SDS011;31738;50.188;8.524;2023-04-03T08:50:11;8.98;;;2.25;;
46006;SDS011;31738;50.188;8.524;2023-04-03T08:58:00;8.23;;;2.28;;
46006;SDS011;31738;50.188;8.524;2023-04-03T09:00:27;6.22;;;1.80;;
46006;SDS011;31738;50.188;8.524;2023-04-03T09:02:55;5.47;;;2.53;;
46006;SDS011;31738;50.188;8.524;2023-04-03T09:08:16;6.07;;;2.38;;
46006;SDS011;31738;50.188;8.524;2023-04-03T09:10:47;5.05;;;1.92;;
46006;SDS011;31738;50.188;8.524;2023-04-03T09:15:58;5.20;;;1.77;;
46006;SDS011;31738;50.188;8.524;2023-04-03T09:18:30;6.50;;;2.03;;
46006;SDS011;31738;50.188;8.524;2023-04-03T09:21:03;8.07;;;2.13;;
46006;SDS011;31738;50.188;8.524;2023-04-03T09:23:42;8.45;;;2.30;;
46006;SDS011;31738;50.188;8.524;2023-04-03T09:26:15;4.28;;;1.83;;
46006;SDS011;31738;50.188;8.524;2023-04-03T09:31:20;3.00;;;1.48;;
46006;SDS011;31738;50.188;8.524;2023-04-03T09:33:49;5.53;;;2.78;;
46006;SDS011;31738;50.188;8.524;2023-04-03T09:36:36;7.07;;;2.50;;
46006;SDS011;31738;50.188;8.524;2023-04-03T09:39:09;9.15;;;2.38;;
46006;SDS011;31738;50.188;8.524;2023-04-03T09:41:56;5.25;;;1.83;;
46006;SDS011;31738;50.188;8.524;2023-04-03T09:44:34;9.48;;;2.70;;
46006;SDS011;31738;50.188;8.524;2023-04-03T09:47:17;8.18;;;2.25;;
46006;SDS011;31738;50.188;8.524;2023-04-03T09:52:38;7.55;;;2.25;;
46006;SDS011;31738;50.188;8.524;2023-04-03T09:55:46;6.95;;;2.42;;
46006;SDS011;31738;50.188;8.524;2023-04-03T09:57:55;9.88;;;2.53;;
46006;SDS011;31738;50.188;8.524;2023-04-03T10:00:27;5.97;;;2.15;;
46006;SDS011;31738;50.188;8.524;2023-04-03T10:02:58;7.35;;;2.50;;
46006;SDS011;31738;50.188;8.524;2023-04-03T10:05:30;7.57;;;2.40;;
46006;SDS011;31738;50.188;8.524;2023-04-03T10:08:19;8.27;;;2.35;;
46006;SDS011;31738;50.188;8.524;2023-04-03T10:10:48;6.25;;;2.17;;
46006;SDS011;31738;50.188;8.524;2023-04-03T10:13:31;3.97;;;1.88;;
46006;SDS011;31738;50.188;8.524;2023-04-03T10:16:00;8.93;;;2.33;;
46006;SDS011;31738;50.188;8.524;2023-04-03T10:18:40;7.40;;;2.40;;
46006;SDS011;31738;50.188;8.524;2023-04-03T10:21:15;7.22;;;2.28;;
46006;SDS011;31738;50.188;8.524;2023-04-03T10:23:51;3.35;;;1.85;;
46006;SDS011;31738;50.188;8.524;2023-04-03T10:29:24;5.90;;;1.95;;
46006;SDS011;31738;50.188;8.524;2023-04-03T10:35:11;3.88;;;2.00;;
46006;SDS011;31738;50.188;8.524;2023-04-03T10:37:50;5.18;;;2.03;;
46006;SDS011;31738;50.188;8.524;2023-04-03T10:43:24;5.57;;;2.22;;
46006;SDS011;31738;50.188;8.524;2023-04-03T10:46:17;5.35;;;2.45;;
46006;SDS011;31738;50.188;8.524;2023-04-03T10:49:05;4.97;;;2.05;;
46006;SDS011;31738;50.188;8.524;2023-04-03T10:51:45;5.82;;;2.33;;
46006;SDS011;31738;50.188;8.524;2023-04-03T10:56:53;7.68;;;2.30;;
46006;SDS011;31738;50.188;8.524;2023-04-03T10:59:26;5.07;;;2.65;;
46006;SDS011;31738;50.188;8.524;2023-04-03T11:02:01;4.75;;;2.35;;
46006;SDS011;31738;50.188;8.524;2023-04-03T11:07:07;5.25;;;2.28;;
46006;SDS011;31738;50.188;8.524;2023-04-03T11:09:39;5.28;;;2.30;;
46006;SDS011;31738;50.188;8.524;2023-04-03T11:12:26;6.18;;;2.60;;
46006;SDS011;31738;50.188;8.524;2023-04-03T11:15:03;7.55;;;2.70;;
46006;SDS011;31738;50.188;8.524;2023-04-03T11:17:33;5.68;;;2.70;;
46006;SDS011;31738;50.188;8.524;2023-04-03T11:20:06;5.63;;;2.08;;
46006;SDS011;31738;50.188;8.524;2023-04-03T11:25:25;5.85;;;2.13;;
46006;SDS011;31738;50.188;8.524;2023-04-03T11:30:25;5.85;;;2.60;;
46006;SDS011;31738;50.188;8.524;2023-04-03T11:32:59;4.47;;;2.58;;
46006;SDS011;31738;50.188;8.524;2023-04-03T11:35:35;5.70;;;2.60;;
46006;SDS011;31738;50.188;8.524;2023-04-03T11:38:02;4.68;;;2.60;;
46006;SDS011;31738;50.188;8.524;2023-04-03T11:40:35;5.50;;;2.60;;
46006;SDS011;31738;50.188;8.524;2023-04-03T11:43:04;5.38;;;2.83;;
46006;SDS011;31738;50.188;8.524;2023-04-03T11:45:55;3.45;;;2.22;;
46006;SDS011;31738;50.188;8.524;2023-04-03T11:50:53;4.10;;;2.30;;
46006;SDS011;31738;50.188;8.524;2023-04-03T11:53:53;6.28;;;2.55;;
46006;SDS011;31738;50.188;8.524;2023-04-03T12:01:48;5.88;;;2.30;;
46006;SDS011;31738;50.188;8.524;2023-04-03T12:04:14;6.35;;;2.60;;
46006;SDS011;31738;50.188;8.524;2023-04-03T12:06:43;3.92;;;2.15;;
46006;SDS011;31738;50.188;8.524;2023-04-03T12:09:22;4.93;;;2.75;;
46006;SDS011;31738;50.188;8.524;2023-04-03T12:11:50;5.97;;;2.50;;
46006;SDS011;31738;50.188;8.524;2023-04-03T12:14:17;5.75;;;3.10;;
46006;SDS011;31738;50.188;8.524;2023-04-03T12:16:44;6.43;;;2.35;;
46006;SDS011;31738;50.188;8.524;2023-04-03T12:26:36;5.88;;;2.60;;
46006;SDS011;31738;50.188;8.524;2023-04-03T12:29:34;5.57;;;2.40;;
46006;SDS011;31738;50.188;8.524;2023-04-03T12:40:27;4.13;;;2.33;;
46006;SDS011;31738;50.188;8.524;2023-04-03T12:45:48;3.30;;;2.13;;
46006;SDS011;31738;50.188;8.524;2023-04-03T12:48:25;2.40;;;1.55;;
46006;SDS011;31738;50.188;8.524;2023-04-03T12:50:52;4.82;;;2.20;;
46006;SDS011;31738;50.188;8.524;2023-04-03T12:53:23;6.00;;;2.00;;
46006;SDS011;31738;50.188;8.524;2023-04-03T12:55:55;4.13;;;1.83;;
46006;SDS011;31738;50.188;8.524;2023-04-03T12:58:22;5.07;;;2.55;;
46006;SDS011;31738;50.188;8.524;2023-04-03T13:01:00;11.20;;;2.25;;
46006;SDS011;31738;50.188;8.524;2023-04-03T13:03:26;3.78;;;2.10;;
46006;SDS011;31738;50.188;8.524;2023-04-03T13:05:53;4.72;;;2.50;;
46006;SDS011;31738;50.188;8.524;2023-04-03T13:08:22;5.93;;;2.63;;
46006;SDS011;31738;50.188;8.524;2023-04-03T13:11:05;4.32;;;2.08;;
46006;SDS011;31738;50.188;8.524;2023-04-03T13:13:36;5.47;;;2.00;;
46006;SDS011;31738;50.188;8.524;2023-04-03T13:16:07;5.13;;;2.20;;
46006;SDS011;31738;50.188;8.524;2023-04-03T13:18:35;4.07;;;2.05;;
46006;SDS011;31738;50.188;8.524;2023-04-03T13:21:03;4.75;;;1.77;;
46006;SDS011;31738;50.188;8.524;2023-04-03T13:23:34;4.22;;;2.25;;
46006;SDS011;31738;50.188;8.524;2023-04-03T13:26:01;5.90;;;2.25;;
46006;SDS011;31738;50.188;8.524;2023-04-03T13:28:30;5.85;;;2.10;;
46006;SDS011;31738;50.188;8.524;2023-04-03T13:31:08;4.88;;;2.05;;
46006;SDS011;31738;50.188;8.524;2023-04-03T13:33:50;6.03;;;2.00;;
46006;SDS011;31738;50.188;8.524;2023-04-03T13:36:23;6.97;;;2.38;;
46006;SDS011;31738;50.188;8.524;2023-04-03T13:39:04;5.07;;;2.03;;
46006;SDS011;31738;50.188;8.524;2023-04-03T13:41:51;6.22;;;2.35;;
46006;SDS011;31738;50.188;8.524;2023-04-03T13:49:46;4.43;;;2.53;;
46006;SDS011;31738;50.188;8.524;2023-04-03T13:52:30;3.72;;;2.05;;
46006;SDS011;31738;50.188;8.524;2023-04-03T13:58:01;5.03;;;2.17;;
46006;SDS011;31738;50.188;8.524;2023-04-03T14:03:02;4.80;;;2.17;;
46006;SDS011;31738;50.188;8.524;2023-04-03T14:05:29;4.47;;;2.00;;
46006;SDS011;31738;50.188;8.524;2023-04-03T14:07:54;3.03;;;1.80;;
46006;SDS011;31738;50.188;8.524;2023-04-03T14:10:20;5.95;;;2.08;;
46006;SDS011;31738;50.188;8.524;2023-04-03T14:12:46;6.20;;;2.35;;
46006;SDS011;31738;50.188;8.524;2023-04-03T14:15:17;4.38;;;1.90;;
46006;SDS011;31738;50.188;8.524;2023-04-03T14:17:45;3.28;;;1.80;;
46006;SDS011;31738;50.188;8.524;2023-04-03T14:20:18;3.42;;;1.60;;
46006;SDS011;31738;50.188;8.524;2023-04-03T14:22:46;6.03;;;1.80;;
46006;SDS011;31738;50.188;8.524;2023-04-03T14:25:12;2.25;;;1.23;;
46006;SDS011;31738;50.188;8.524;2023-04-03T14:27:39;5.80;;;1.80;;
46006;SDS011;31738;50.188;8.524;2023-04-03T14:30:08;3.70;;;1.45;;
46006;SDS011;31738;50.188;8.524;2023-04-03T14:32:37;5.18;;;1.70;;
46006;SDS011;31738;50.188;8.524;2023-04-03T14:35:03;5.05;;;1.50;;
46006;SDS011;31738;50.188;8.524;2023-04-03T14:37:30;4.78;;;1.48;;
46006;SDS011;31738;50.188;8.524;2023-04-03T14:39:57;4.95;;;1.40;;
46006;SDS011;31738;50.188;8.524;2023-04-03T14:42:27;3.47;;;1.45;;
46006;SDS011;31738;50.188;8.524;2023-04-03T14:44:56;6.50;;;1.60;;
46006;SDS011;31738;50.188;8.524;2023-04-03T14:47:24;5.60;;;1.58;;
46006;SDS011;31738;50.188;8.524;2023-04-03T14:49:53;5.35;;;1.30;;
46006;SDS011;31738;50.188;8.524;2023-04-03T14:52:26;5.82;;;1.52;;
46006;SDS011;31738;50.188;8.524;2023-04-03T14:54:56;4.38;;;1.67;;
46006;SDS011;31738;50.188;8.524;2023-04-03T14:57:23;2.95;;;1.30;;
46006;SDS011;31738;50.188;8.524;2023-04-03T14:59:50;1.95;;;1.08;;
46006;SDS011;31738;50.188;8.524;2023-04-03T15:02:23;2.55;;;1.35;;
46006;SDS011;31738;50.188;8.524;2023-04-03T15:04:52;6.82;;;1.38;;
46006;SDS011;31738;50.188;8.524;2023-04-03T15:07:18;4.80;;;1.08;;
46006;SDS011;31738;50.188;8.524;2023-04-03T15:09:44;3.15;;;1.30;;
46006;SDS011;31738;50.188;8.524;2023-04-03T15:12:10;4.18;;;1.40;;
46006;SDS011;31738;50.188;8.524;2023-04-03T15:14:37;4.93;;;1.20;;
46006;SDS011;31738;50.188;8.524;2023-04-03T15:17:06;5.18;;;1.15;;
46006;SDS011;31738;50.188;8.524;2023-04-03T15:19:39;4.53;;;1.20;;
46006;SDS011;31738;50.188;8.524;2023-04-03T15:22:05;3.50;;;1.50;;
46006;SDS011;31738;50.188;8.524;2023-04-03T15:24:30;2.45;;;1.10;;
46006;SDS011;31738;50.188;8.524;2023-04-03T15:26:56;4.78;;;1.40;;
46006;SDS011;31738;50.188;8.524;2023-04-03T15:29:21;4.10;;;1.20;;
46006;SDS011;31738;50.188;8.524;2023-04-03T15:31:46;4.88;;;1.40;;
46006;SDS011;31738;50.188;8.524;2023-04-03T15:34:14;3.80;;;1.20;;
46006;SDS011;31738;50.188;8.524;2023-04-03T15:36:41;1.90;;;0.80;;
46006;SDS011;31738;50.188;8.524;2023-04-03T15:39:06;5.03;;;1.25;;
46006;SDS011;31738;50.188;8.524;2023-04-03T15:41:32;3.10;;;1.17;;
46006;SDS011;31738;50.188;8.524;2023-04-03T15:43:57;3.15;;;1.35;;
46006;SDS011;31738;50.188;8.524;2023-04-03T15:46:23;4.65;;;1.10;;
46006;SDS011;31738;50.188;8.524;2023-04-03T15:48:48;6.95;;;1.55;;
46006;SDS011;31738;50.188;8.524;2023-04-03T15:51:14;2.80;;;1.20;;
46006;SDS011;31738;50.188;8.524;2023-04-03T15:53:40;4.90;;;1.27;;
46006;SDS011;31738;50.188;8.524;2023-04-03T15:56:05;3.40;;;1.20;;
46006;SDS011;31738;50.188;8.524;2023-04-03T15:58:33;4.95;;;1.20;;
46006;SDS011;31738;50.188;8.524;2023-04-03T16:00:58;5.18;;;1.30;;
46006;SDS011;31738;50.188;8.524;2023-04-03T16:03:24;4.13;;;0.98;;
46006;SDS011;31738;50.188;8.524;2023-04-03T16:05:49;4.38;;;1.15;;
46006;SDS011;31738;50.188;8.524;2023-04-03T16:08:15;5.82;;;1.27;;
46006;SDS011;31738;50.188;8.524;2023-04-03T16:10:42;2.15;;;0.93;;
46006;SDS011;31738;50.188;8.524;2023-04-03T16:13:10;4.03;;;1.20;;
46006;SDS011;31738;50.188;8.524;2023-04-03T16:15:35;4.88;;;1.25;;
46006;SDS011;31738;50.188;8.524;2023-04-03T16:18:01;4.10;;;1.00;;